Terminal Aerodrome Forecast
Issued by NWS

Home | Current Version | Previous Version | Text Only | Print | Product List | Glossary On
Versions: 1 2 3 4 5 6 7 8 9 10 11 12 13 14 15 16
000
FTUS41 KCAR 231740
TAFFVE
TAF
KFVE 231740Z 2318/2418 15007KT P6SM BKN250
     FM240500 17005KT 5SM BR OVC008
     FM240700 17004KT 3/4SM BR OVC005
     FM241500 17009KT P6SM OVC008=

USA.gov is the U.S. government's official web portal to all federal, state and local government web resources and services.